Time;durP1;ratioP1;P1;durP2;ratioP2;P2;SDS_P1;SDS_P2;PMS_P1;PMS_P2;Temp;Humidity;BMP_temperature;BMP_pressure;BME280_temperature;BME280_humidity;BME280_pressure;Samples;Min_cycle;Max_cycle;Signal;HPM_P1;HPM_P2
2021/11/29 00:01:07;;;;;;;3.58;3.28;;;;;;;-1.61;100.00;91313.47;2083623;28;20277;-88
2021/11/29 00:02:16;;;;;;;4.50;3.45;;;;;;;-1.79;100.00;91312.84;2075680;28;20030;-88
2021/11/29 00:03:18;;;;;;;3.10;2.80;;;;;;;-1.89;100.00;91308.38;2081117;28;20053;-90
2021/11/29 00:04:39;;;;;;;3.22;2.92;;;;;;;-1.84;100.00;91311.38;2082853;28;20052;-88
2021/11/29 00:05:42;;;;;;;3.17;2.88;;;;;;;-1.94;100.00;91311.41;2090909;28;20032;-92
2021/11/29 00:07:02;;;;;;;3.15;2.70;;;;;;;-1.67;100.00;91311.63;2089918;28;20039;-89
2021/11/29 00:08:31;;;;;;;3.10;2.75;;;;;;;-1.86;100.00;91305.75;2086851;28;20025;-89
2021/11/29 00:09:35;;;;;;;3.22;2.92;;;;;;;-1.71;100.00;91303.03;2081322;28;20144;-91
2021/11/29 00:10:38;;;;;;;2.88;2.60;;;;;;;-1.72;100.00;91312.78;2081006;28;20059;-90
2021/11/29 00:11:40;;;;;;;3.60;3.05;;;;;;;-1.74;100.00;91312.44;2077018;28;20029;-86
2021/11/29 00:12:46;;;;;;;3.55;3.20;;;;;;;-1.83;100.00;91312.84;2080695;28;20029;-89
2021/11/29 00:13:51;;;;;;;3.80;2.95;;;;;;;-1.80;100.00;91308.69;2087050;28;20043;-86
2021/11/29 00:14:54;;;;;;;3.75;3.30;;;;;;;-1.79;100.00;91304.97;2091068;28;20039;-90
2021/11/29 00:15:59;;;;;;;3.25;2.95;;;;;;;-1.90;100.00;91310.25;2076134;28;20513;-90
2021/11/29 00:17:05;;;;;;;3.10;2.80;;;;;;;-1.85;100.00;91311.72;2068512;28;20032;-91
2021/11/29 00:18:06;;;;;;;2.88;2.67;;;;;;;-1.87;100.00;91311.38;2075989;28;20032;-88
2021/11/29 00:19:07;;;;;;;3.05;2.75;;;;;;;-1.87;100.00;91314.00;2082974;28;20390;-89
2021/11/29 00:20:10;;;;;;;3.47;3.17;;;;;;;-1.76;100.00;91312.06;2083046;28;20021;-89
2021/11/29 00:21:13;;;;;;;3.33;3.03;;;;;;;-1.83;100.00;91319.97;2083952;28;20508;-89
2021/11/29 00:22:14;;;;;;;3.50;3.20;;;;;;;-1.76;100.00;91317.28;2082218;28;20021;-88
2021/11/29 00:23:15;;;;;;;3.22;2.92;;;;;;;-1.83;100.00;91322.59;2074437;28;20045;-87
2021/11/29 00:24:20;;;;;;;3.75;3.28;;;;;;;-1.88;100.00;91321.09;2075171;28;20033;-87
2021/11/29 00:25:21;;;;;;;3.70;3.40;;;;;;;-1.96;100.00;91324.88;2082582;28;20513;-90
2021/11/29 00:26:23;;;;;;;3.38;3.08;;;;;;;-1.96;100.00;91324.13;2082447;28;20037;-87
2021/11/29 00:27:24;;;;;;;3.45;2.90;;;;;;;-2.04;100.00;91320.81;2072183;28;20513;-87
2021/11/29 00:28:27;;;;;;;3.50;3.20;;;;;;;-2.11;100.00;91318.97;2082410;28;20037;-88
2021/11/29 00:29:34;;;;;;;3.38;3.08;;;;;;;-2.08;100.00;91323.44;2072086;28;20049;-89
2021/11/29 00:30:39;;;;;;;2.90;2.60;;;;;;;-2.11;100.00;91320.81;2081197;28;20721;-88
2021/11/29 00:31:43;;;;;;;3.15;2.70;;;;;;;-2.13;100.00;91331.69;2067078;28;20058;-89
2021/11/29 00:32:44;;;;;;;3.00;2.70;;;;;;;-2.17;100.00;91330.94;2074807;28;20033;-87
2021/11/29 00:33:45;;;;;;;2.88;2.67;;;;;;;-1.95;100.00;91333.47;2074763;28;20533;-87
2021/11/29 00:34:46;;;;;;;2.92;2.63;;;;;;;-1.95;100.00;91328.25;2075645;28;20037;-88
2021/11/29 00:35:52;;;;;;;3.58;2.80;;;;;;;-1.99;100.00;91327.50;2074256;28;20033;-90
2021/11/29 00:36:55;;;;;;;3.42;3.13;;;;;;;-2.04;100.00;91331.28;2077966;28;20106;-87
2021/11/29 00:38:04;;;;;;;3.20;2.90;;;;;;;-2.04;100.00;91328.66;2082917;28;20040;-86
2021/11/29 00:39:05;;;;;;;3.30;3.00;;;;;;;-2.01;100.00;91333.13;2084447;28;20036;-87
2021/11/29 00:40:10;;;;;;;3.35;3.05;;;;;;;-2.05;100.00;91342.88;2085466;28;20020;-89
2021/11/29 00:41:15;;;;;;;3.08;2.78;;;;;;;-1.96;100.00;91345.09;2084702;28;20552;-88
2021/11/29 00:42:19;;;;;;;2.70;2.45;;;;;;;-1.96;100.00;91342.47;2074681;28;20022;-89
2021/11/29 00:43:23;;;;;;;3.63;3.33;;;;;;;-1.84;100.00;91344.66;2072764;28;20018;-87
2021/11/29 00:44:27;;;;;;;3.20;2.90;;;;;;;-1.98;100.00;91345.44;2081919;28;20021;-86
2021/11/29 00:45:30;;;;;;;3.45;2.90;;;;;;;-1.98;100.00;91349.94;2083829;28;20017;-90
2021/11/29 00:46:32;;;;;;;2.92;2.70;;;;;;;-2.03;100.00;91343.97;2089895;28;20565;-88
2021/11/29 00:47:46;;;;;;;4.30;2.80;;;;;;;-1.99;100.00;91341.34;2080906;28;20033;-88
2021/11/29 00:48:47;;;;;;;3.78;3.47;;;;;;;-2.06;100.00;91347.38;2080478;28;20072;-87
2021/11/29 00:49:48;;;;;;;3.97;3.53;;;;;;;-2.03;100.00;91343.22;2072790;28;20028;-89
2021/11/29 00:50:49;;;;;;;3.08;2.88;;;;;;;-2.08;100.00;91344.38;2073924;28;20029;-89
2021/11/29 00:51:52;;;;;;;3.33;3.00;;;;;;;-2.09;100.00;91347.38;2065120;28;20030;-85
2021/11/29 00:52:53;;;;;;;3.50;3.20;;;;;;;-2.10;100.00;91348.50;2066100;28;20486;-90
2021/11/29 00:53:55;;;;;;;3.28;2.97;;;;;;;-1.97;100.00;91343.59;2065018;28;20022;-87
2021/11/29 00:54:56;;;;;;;3.10;2.83;;;;;;;-1.90;100.00;91351.41;2074146;28;20087;-88
2021/11/29 00:56:03;;;;;;;2.97;2.67;;;;;;;-1.81;100.00;91344.63;2073635;28;20076;-90
2021/11/29 00:57:10;;;;;;;3.22;2.92;;;;;;;-1.79;100.00;91352.13;2066808;28;20113;-89
2021/11/29 00:58:11;;;;;;;3.40;3.10;;;;;;;-1.93;100.00;91352.94;2074681;28;20313;-90
2021/11/29 00:59:12;;;;;;;3.50;3.20;;;;;;;-1.97;100.00;91346.22;2084131;28;20029;-88
2021/11/29 01:00:21;;;;;;;3.42;3.13;;;;;;;-1.83;100.00;91349.50;2073287;28;20033;-87
2021/11/29 01:01:23;;;;;;;3.03;2.72;;;;;;;-1.86;100.00;91354.75;2076626;28;20101;-88
2021/11/29 01:02:29;;;;;;;2.80;2.60;;;;;;;-1.85;100.00;91353.63;2086757;28;20017;-89
2021/11/29 01:03:49;;;;;;;3.13;2.85;;;;;;;-1.96;100.00;91353.69;2088462;28;20054;-90
2021/11/29 01:05:10;;;;;;;3.30;3.00;;;;;;;-1.93;100.00;91354.78;2085734;28;20031;-88
2021/11/29 01:06:12;;;;;;;3.20;3.00;;;;;;;-1.89;100.00;91360.75;2071100;28;20033;-86
2021/11/29 01:07:29;;;;;;;3.00;2.80;;;;;;;-1.91;100.00;91355.16;2069180;28;20022;-86
2021/11/29 01:08:45;;;;;;;2.67;2.47;;;;;;;-1.93;100.00;91363.41;2069911;28;20112;-88
2021/11/29 01:09:46;;;;;;;3.17;2.85;;;;;;;-1.97;100.00;91367.16;2081538;28;20037;-89
2021/11/29 01:10:47;;;;;;;3.15;2.85;;;;;;;-1.96;100.00;91366.03;2087975;28;20127;-88
2021/11/29 01:11:54;;;;;;;3.63;3.33;;;;;;;-1.86;100.00;91368.59;2088679;28;20021;-88
2021/11/29 01:13:03;;;;;;;2.58;2.38;;;;;;;-1.80;100.00;91368.94;2082171;28;20115;-90
2021/11/29 01:14:10;;;;;;;2.60;2.40;;;;;;;-1.78;100.00;91359.59;2069376;28;20824;-90
2021/11/29 01:15:21;;;;;;;3.33;2.80;;;;;;;-1.79;100.00;91367.81;2071334;28;20100;-90
2021/11/29 01:16:25;;;;;;;3.17;2.90;;;;;;;-1.73;100.00;91365.53;2091226;28;20459;-90
2021/11/29 01:17:26;;;;;;;3.20;2.90;;;;;;;-1.68;100.00;91368.50;2088637;28;20033;-89
2021/11/29 01:18:27;;;;;;;2.88;2.67;;;;;;;-1.63;100.00;91375.22;2072664;28;20069;-87
2021/11/29 01:19:29;;;;;;;2.70;2.53;;;;;;;-1.74;100.00;91374.53;2071475;28;20029;-88
2021/11/29 01:20:30;;;;;;;3.15;2.85;;;;;;;-1.75;100.00;91381.66;2080628;28;20033;-89
2021/11/29 01:21:31;;;;;;;2.88;2.67;;;;;;;-1.81;100.00;91378.66;2089344;28;20655;-87
2021/11/29 01:22:33;;;;;;;3.00;2.70;;;;;;;-1.77;100.00;91379.41;2090941;28;20092;-87
2021/11/29 01:23:34;;;;;;;2.92;2.72;;;;;;;-1.68;100.00;91373.75;2089289;28;20184;-87
2021/11/29 01:24:38;;;;;;;2.42;2.22;;;;;;;-1.78;100.00;91385.78;2074183;28;20057;-87
2021/11/29 01:25:41;;;;;;;2.83;2.53;;;;;;;-1.84;100.00;91383.94;2082539;28;20020;-87
2021/11/29 01:26:42;;;;;;;2.65;2.45;;;;;;;-1.79;100.00;91383.53;2080371;28;20029;-88
2021/11/29 01:27:43;;;;;;;2.97;2.75;;;;;;;-1.78;100.00;91379.78;2072179;28;20033;-86
2021/11/29 01:28:45;;;;;;;2.83;2.60;;;;;;;-1.80;100.00;91384.66;2082078;28;20083;-89
2021/11/29 01:29:53;;;;;;;2.70;2.50;;;;;;;-1.86;100.00;91389.53;2089739;28;20112;-87
2021/11/29 01:30:54;;;;;;;2.50;2.30;;;;;;;-1.92;100.00;91396.31;2096926;28;20028;-88
2021/11/29 01:31:55;;;;;;;2.55;2.35;;;;;;;-1.81;100.00;91391.75;2079585;28;20117;-88
2021/11/29 01:33:00;;;;;;;2.33;2.13;;;;;;;-1.86;100.00;91397.38;2073319;28;20030;-88
2021/11/29 01:34:06;;;;;;;2.53;2.15;;;;;;;-1.88;100.00;91391.06;2089820;28;20045;-89
2021/11/29 01:35:08;;;;;;;2.50;2.30;;;;;;;-1.81;100.00;91391.00;2090989;28;20029;-90
2021/11/29 01:36:12;;;;;;;2.42;2.22;;;;;;;-1.71;100.00;91390.25;2073795;28;20033;-85
2021/11/29 01:37:16;;;;;;;2.40;2.20;;;;;;;-1.79;100.00;91391.41;2072030;28;20025;-87
2021/11/29 01:38:21;;;;;;;2.25;2.00;;;;;;;-1.71;100.00;91392.09;2084312;28;20032;-90
2021/11/29 01:39:22;;;;;;;2.13;1.92;;;;;;;-1.82;100.00;91400.75;2077118;28;20025;-85
2021/11/29 01:40:27;;;;;;;1.83;1.73;;;;;;;-1.61;100.00;91389.44;2073595;28;20132;-88
2021/11/29 01:41:28;;;;;;;1.90;1.80;;;;;;;-1.89;100.00;91394.78;2073009;28;20026;-87
2021/11/29 01:42:30;;;;;;;1.92;1.77;;;;;;;-1.89;100.00;91400.78;2073554;28;20128;-87
2021/11/29 01:43:32;;;;;;;2.80;2.03;;;;;;;-1.54;100.00;91399.91;2079829;28;20494;-87
2021/11/29 01:44:33;;;;;;;1.80;1.70;;;;;;;-1.73;100.00;91400.34;2077866;28;20131;-87
2021/11/29 01:45:42;;;;;;;2.13;1.92;;;;;;;-1.84;100.00;91404.88;2083337;28;20508;-87
2021/11/29 01:46:45;;;;;;;1.58;1.48;;;;;;;-1.66;100.00;91397.69;2081085;28;20029;-87
2021/11/29 01:47:46;;;;;;;2.17;1.98;;;;;;;-1.79;100.00;91397.38;2066893;28;20045;-87
2021/11/29 01:48:47;;;;;;;1.85;1.73;;;;;;;-1.77;100.00;91396.97;2073702;28;20034;-89
2021/11/29 01:49:49;;;;;;;3.15;2.03;;;;;;;-1.90;100.00;91403.75;2073231;28;21661;-89
2021/11/29 01:50:53;;;;;;;2.13;1.92;;;;;;;-1.83;100.00;91401.88;2066343;28;20098;-89
2021/11/29 01:51:54;;;;;;;2.28;2.08;;;;;;;-1.91;100.00;91399.66;2084793;28;20433;-88
2021/11/29 01:52:55;;;;;;;2.20;1.92;;;;;;;-1.88;100.00;91402.28;2080770;28;20029;-89
2021/11/29 01:53:56;;;;;;;2.30;2.10;;;;;;;-1.98;100.00;91410.88;2074152;28;20034;-90
2021/11/29 01:54:57;;;;;;;1.95;1.85;;;;;;;-2.04;100.00;91415.78;2088915;28;20035;-90
2021/11/29 01:55:59;;;;;;;2.40;2.20;;;;;;;-1.89;100.00;91419.13;2079215;28;20028;-87
2021/11/29 01:57:05;;;;;;;2.13;1.92;;;;;;;-1.96;100.00;91410.53;2071534;28;20121;-88
2021/11/29 01:58:19;;;;;;;2.28;2.08;;;;;;;-2.03;100.00;91417.25;2081752;28;20060;-92
2021/11/29 01:59:22;;;;;;;2.13;1.95;;;;;;;-1.82;100.00;91416.44;2080988;28;20029;-89
2021/11/29 02:00:30;;;;;;;2.13;1.92;;;;;;;-1.86;100.00;91418.34;2069190;28;20033;-89
2021/11/29 02:01:36;;;;;;;2.67;1.88;;;;;;;-1.87;100.00;91410.88;2081257;28;20045;-89
2021/11/29 02:02:42;;;;;;;2.30;2.10;;;;;;;-1.86;100.00;91413.09;2080449;28;20450;-86
2021/11/29 02:04:11;;;;;;;1.65;1.55;;;;;;;-2.06;100.00;91415.41;2082623;28;20256;-86
2021/11/29 02:05:32;;;;;;;8.05;2.83;;;;;;;-1.89;100.00;91419.13;2087509;28;20866;-88
2021/11/29 02:06:51;;;;;;;2.40;2.20;;;;;;;-1.87;100.00;91426.59;2074260;28;20044;-87
2021/11/29 02:09:02;;;;;;;;;;;;;;;-1.77;100.00;91428.41;2139010;27;20555;-89
2021/11/29 02:10:05;;;;;;;2.33;2.03;;;;;;;-1.71;100.00;91434.00;2119102;28;19999;-91
2021/11/29 02:11:08;;;;;;;2.30;1.92;;;;;;;-1.93;100.00;91428.84;2102659;28;20103;-86
2021/11/29 02:12:10;;;;;;;3.58;2.10;;;;;;;-2.03;100.00;91438.19;2112107;27;20566;-90
2021/11/29 02:13:13;;;;;;;3.20;1.67;;;;;;;-1.88;100.00;91432.94;2105964;28;20461;-89
2021/11/29 02:14:14;;;;;;;2.30;2.10;;;;;;;-1.97;100.00;91435.97;2101342;28;20458;-88
2021/11/29 02:15:16;;;;;;;2.50;2.30;;;;;;;-2.13;100.00;91438.25;2107030;28;21254;-89
2021/11/29 02:16:17;;;;;;;2.03;1.83;;;;;;;-2.06;100.00;91440.84;2120681;28;20559;-87
2021/11/29 02:17:18;;;;;;;2.70;2.40;;;;;;;-2.37;100.00;91443.16;2102794;28;20055;-85
2021/11/29 02:18:32;;;;;;;2.58;2.17;;;;;;;-2.35;100.00;91443.50;2105385;28;20487;-89
2021/11/29 02:19:40;;;;;;;3.13;2.17;;;;;;;-2.32;100.00;91442.75;2113356;27;20540;-90
2021/11/29 02:21:18;;;;;;;2.40;2.20;;;;;;;-2.40;100.00;91441.28;2118737;28;20607;-87
2021/11/29 02:22:19;;;;;;;2.53;2.28;;;;;;;-2.20;100.00;91438.25;2106639;28;20046;-88
2021/11/29 02:23:22;;;;;;;2.58;2.38;;;;;;;-2.20;100.00;91441.59;2096988;28;20495;-88
2021/11/29 02:24:27;;;;;;;4.60;2.28;;;;;;;-2.28;100.00;91443.50;2097815;28;20879;-89
2021/11/29 02:25:29;;;;;;;2.15;2.00;;;;;;;-2.20;100.00;91446.84;2103851;28;20134;-91
2021/11/29 02:26:33;;;;;;;2.22;2.03;;;;;;;-2.29;100.00;91442.00;2100432;28;20465;-87
2021/11/29 02:27:36;;;;;;;2.75;2.47;;;;;;;-2.24;100.00;91445.34;2107469;28;20073;-89
2021/11/29 02:28:39;;;;;;;2.50;2.30;;;;;;;-2.00;100.00;91436.72;2102272;28;20466;-88
2021/11/29 02:29:41;;;;;;;2.60;2.40;;;;;;;-2.14;100.00;91439.38;2099845;28;20032;-89
2021/11/29 02:30:44;;;;;;;2.92;2.33;;;;;;;-2.22;100.00;91448.34;2101694;28;20490;-89
2021/11/29 02:31:49;;;;;;;2.60;2.40;;;;;;;-2.32;100.00;91445.38;2093479;28;20044;-88
2021/11/29 02:32:52;;;;;;;3.00;2.75;;;;;;;-2.46;100.00;91449.84;2105223;28;20060;-88
2021/11/29 02:33:53;;;;;;;2.65;2.45;;;;;;;-2.39;100.00;91455.84;2103027;28;20032;-89
2021/11/29 02:34:54;;;;;;;2.53;2.30;;;;;;;-2.30;100.00;91458.81;2096726;28;20359;-87
2021/11/29 02:35:55;;;;;;;2.38;2.17;;;;;;;-2.38;100.00;91462.56;2097400;28;20052;-90
2021/11/29 02:36:59;;;;;;;3.00;2.80;;;;;;;-2.34;100.00;91459.94;2098792;28;20379;-88
2021/11/29 02:38:00;;;;;;;2.58;2.38;;;;;;;-2.22;100.00;91464.06;2104415;28;20074;-89
2021/11/29 02:39:06;;;;;;;2.58;2.38;;;;;;;-2.19;100.00;91464.06;2110827;28;20171;-88
2021/11/29 02:40:08;;;;;;;2.97;2.42;;;;;;;-2.25;100.00;91462.91;2112353;28;20139;-91
2021/11/29 02:41:09;;;;;;;2.50;2.30;;;;;;;-2.36;100.00;91465.56;2102965;28;20108;-88
2021/11/29 02:42:12;;;;;;;3.00;2.70;;;;;;;-2.36;100.00;91465.56;2107205;28;20032;-90
2021/11/29 02:43:13;;;;;;;2.40;2.20;;;;;;;-2.24;100.00;91464.41;2107734;28;20542;-90
2021/11/29 02:44:15;;;;;;;2.95;2.60;;;;;;;-2.33;100.00;91464.06;2103382;28;20232;-90
2021/11/29 02:45:17;;;;;;;2.65;2.45;;;;;;;-2.30;100.00;91464.06;2104393;28;20056;-90
2021/11/29 02:46:18;;;;;;;2.80;2.50;;;;;;;-2.29;100.00;91462.19;2119617;27;20027;-87
2021/11/29 02:47:19;;;;;;;2.58;2.35;;;;;;;-2.31;100.00;91469.66;2107559;28;20024;-87
2021/11/29 02:48:41;;;;;;;2.55;2.35;;;;;;;-2.16;100.00;91467.78;2095452;28;20037;-89
2021/11/29 02:49:48;;;;;;;2.60;2.40;;;;;;;-2.33;100.00;91469.28;2105984;28;20035;-88
2021/11/29 02:50:51;;;;;;;2.45;2.25;;;;;;;-2.24;100.00;91472.25;2111432;28;20504;-90
2021/11/29 02:52:04;;;;;;;2.45;2.25;;;;;;;-2.11;100.00;91473.38;2101925;28;20039;-90
2021/11/29 02:53:15;;;;;;;2.38;2.17;;;;;;;-2.22;100.00;91470.03;2102572;28;20183;-88
2021/11/29 02:54:23;;;;;;;2.47;2.28;;;;;;;-2.46;100.00;91478.63;2108998;28;20073;-91
2021/11/29 02:55:28;;;;;;;2.45;2.25;;;;;;;-2.57;100.00;91471.53;2105626;28;20095;-88
2021/11/29 02:56:38;;;;;;;2.70;2.38;;;;;;;-2.61;100.00;91480.50;2112092;28;20348;-88
2021/11/29 02:57:42;;;;;;;2.90;2.60;;;;;;;-2.68;100.00;91478.63;2103854;28;20036;-87
2021/11/29 02:58:50;;;;;;;2.60;2.40;;;;;;;-2.66;100.00;91480.88;2102399;28;20043;-90
2021/11/29 03:00:00;;;;;;;2.05;1.88;;;;;;;-2.67;100.00;91480.13;2120761;27;20035;-91
2021/11/29 03:01:09;;;;;;;2.47;2.28;;;;;;;-2.46;100.00;91492.44;2106032;28;20070;-91
2021/11/29 03:02:18;;;;;;;2.50;2.30;;;;;;;-2.39;100.00;91487.22;2098074;28;20025;-88
2021/11/29 03:03:19;;;;;;;2.63;2.38;;;;;;;-2.44;100.00;91487.63;2102617;28;20036;-89
2021/11/29 03:04:35;;;;;;;3.72;2.25;;;;;;;-2.43;100.00;91486.47;2110760;27;20836;-86
2021/11/29 03:05:38;;;;;;;2.95;2.65;;;;;;;-2.43;100.00;91486.47;2113116;28;20030;-90
2021/11/29 03:06:59;;;;;;;2.60;2.40;;;;;;;-2.43;100.00;91490.97;2111447;28;20039;-89
2021/11/29 03:08:05;;;;;;;3.03;2.70;;;;;;;-2.45;100.00;91499.19;2112458;28;20023;-87
2021/11/29 03:09:09;;;;;;;2.83;2.38;;;;;;;-2.31;100.00;91493.22;2100370;28;20040;-89
2021/11/29 03:10:10;;;;;;;2.95;2.67;;;;;;;-2.30;100.00;91492.84;2093811;28;20027;-87
2021/11/29 03:11:13;;;;;;;3.20;2.75;;;;;;;-2.39;100.00;91494.34;2099232;28;20031;-89
2021/11/29 03:12:14;;;;;;;2.60;2.35;;;;;;;-2.49;100.00;91490.59;2102765;28;20032;-91
2021/11/29 03:13:17;;;;;;;3.30;2.58;;;;;;;-2.45;100.00;91493.22;2096201;28;20471;-88
2021/11/29 03:14:18;;;;;;;2.60;2.40;;;;;;;-2.53;100.00;91493.22;2109953;28;20709;-90
2021/11/29 03:15:22;;;;;;;2.88;2.67;;;;;;;-2.34;100.00;91491.34;2099225;28;20166;-88
2021/11/29 03:16:24;;;;;;;4.47;2.95;;;;;;;-2.36;100.00;91494.34;2102618;28;20073;-89
2021/11/29 03:17:26;;;;;;;3.22;2.92;;;;;;;-2.35;100.00;91497.69;2103583;28;20049;-89
2021/11/29 03:18:35;;;;;;;3.08;2.50;;;;;;;-2.26;100.00;91495.44;2095365;28;20090;-88
2021/11/29 03:19:39;;;;;;;3.28;2.97;;;;;;;-2.16;100.00;91501.78;2106711;28;20361;-90
2021/11/29 03:20:48;;;;;;;3.40;3.10;;;;;;;-2.29;100.00;91502.16;2089450;28;20078;-88
2021/11/29 03:21:50;;;;;;;3.17;2.70;;;;;;;-2.30;100.00;91500.69;2101608;28;20040;-89
2021/11/29 03:22:51;;;;;;;3.42;3.13;;;;;;;-2.30;100.00;91507.78;2102930;28;20107;-86
2021/11/29 03:23:55;;;;;;;3.00;2.80;;;;;;;-2.14;100.00;91502.94;2095128;28;20109;-91
2021/11/29 03:24:56;;;;;;;4.13;3.30;;;;;;;-2.15;100.00;91511.13;2097834;28;20461;-88
2021/11/29 03:25:59;;;;;;;3.28;2.90;;;;;;;-2.33;100.00;91514.53;2096943;28;20519;-88
2021/11/29 03:27:00;;;;;;;3.30;2.90;;;;;;;-2.20;100.00;91508.91;2094714;28;20163;-91
2021/11/29 03:28:01;;;;;;;3.15;2.85;;;;;;;-2.14;100.00;91513.41;2096253;28;20509;-88
2021/11/29 03:29:09;;;;;;;3.78;3.33;;;;;;;-2.31;100.00;91508.91;2097974;28;20083;-89
2021/11/29 03:30:11;;;;;;;3.67;3.33;;;;;;;-2.32;100.00;91517.91;2098706;28;20031;-89
2021/11/29 03:31:13;;;;;;;3.67;3.28;;;;;;;-2.28;100.00;91522.00;2098249;28;20020;-90
2021/11/29 03:32:15;;;;;;;4.20;3.72;;;;;;;-2.30;100.00;91519.00;2093179;28;20029;-90
2021/11/29 03:33:16;;;;;;;3.97;3.63;;;;;;;-2.30;100.00;91518.25;2101495;28;20135;-90
2021/11/29 03:34:19;;;;;;;4.32;3.92;;;;;;;-2.36;100.00;91520.50;2096335;28;20044;-91
2021/11/29 03:35:20;;;;;;;3.83;3.30;;;;;;;-2.30;100.00;91519.00;2103107;28;20111;-88
2021/11/29 03:36:25;;;;;;;4.43;3.92;;;;;;;-2.32;100.00;91523.88;2100960;28;20040;-87
2021/11/29 03:37:30;;;;;;;4.68;4.05;;;;;;;-2.37;100.00;91523.47;2105995;28;20036;-88
2021/11/29 03:38:33;;;;;;;5.47;3.85;;;;;;;-2.27;100.00;91530.59;2089594;28;20025;-87
2021/11/29 03:39:36;;;;;;;5.28;4.15;;;;;;;-2.33;100.00;91532.06;2097923;28;20046;-89
2021/11/29 03:40:40;;;;;;;4.90;4.40;;;;;;;-2.37;100.00;91528.72;2103195;28;20190;-91
2021/11/29 03:41:53;;;;;;;4.18;3.78;;;;;;;-2.30;100.00;91531.34;2113913;27;20035;-89
2021/11/29 03:42:55;;;;;;;4.32;3.85;;;;;;;-2.09;100.00;91536.56;2095671;28;20142;-92
2021/11/29 03:43:56;;;;;;;4.00;3.63;;;;;;;-2.14;100.00;91534.34;2089710;28;20028;-88
2021/11/29 03:44:57;;;;;;;4.45;4.05;;;;;;;-2.19;100.00;91524.25;2085721;28;20834;-89
2021/11/29 03:45:59;;;;;;;4.47;4.05;;;;;;;-2.28;100.00;91536.97;2091127;28;20028;-89
2021/11/29 03:47:00;;;;;;;4.85;4.30;;;;;;;-2.41;100.00;91541.06;2099079;28;20032;-91
2021/11/29 03:48:02;;;;;;;5.13;4.43;;;;;;;-2.37;100.00;91533.94;2103998;28;20460;-89
2021/11/29 03:49:03;;;;;;;6.93;4.55;;;;;;;-2.44;100.00;91544.41;2098568;28;20028;-88
2021/11/29 03:50:05;;;;;;;5.43;4.75;;;;;;;-2.51;100.00;91539.16;2090712;28;20059;-91
2021/11/29 03:51:09;;;;;;;5.65;4.57;;;;;;;-2.51;100.00;91545.16;2086012;28;20036;-91
2021/11/29 03:52:10;;;;;;;5.50;4.50;;;;;;;-2.39;100.00;91539.56;2089363;28;20036;-91
2021/11/29 03:53:11;;;;;;;5.35;4.40;;;;;;;-2.38;100.00;91542.91;2088438;28;20025;-87
2021/11/29 03:54:16;;;;;;;6.88;5.40;;;;;;;-2.20;100.00;91546.28;2087709;28;20083;-87
2021/11/29 03:55:22;;;;;;;5.65;4.63;;;;;;;-2.24;100.00;91542.91;2089205;28;20025;-88
2021/11/29 03:56:29;;;;;;;5.82;4.72;;;;;;;-2.23;100.00;91541.06;2097654;27;20029;-88
2021/11/29 03:57:30;;;;;;;6.30;5.15;;;;;;;-2.29;100.00;91538.06;2107370;28;20067;-88
2021/11/29 03:58:31;;;;;;;5.85;4.72;;;;;;;-2.15;100.00;91548.56;2103751;28;20051;-90
2021/11/29 03:59:34;;;;;;;6.50;5.30;;;;;;;-2.23;100.00;91551.53;2108105;28;20229;-89
2021/11/29 04:00:35;;;;;;;7.30;6.35;;;;;;;-2.28;100.00;91550.03;2096025;28;20063;-89
2021/11/29 04:01:37;;;;;;;7.70;5.82;;;;;;;-2.36;100.00;91553.78;2095519;28;20504;-89
2021/11/29 04:02:40;;;;;;;7.45;5.43;;;;;;;-2.37;100.00;91550.41;2114510;28;20059;-87
2021/11/29 04:04:01;;;;;;;6.72;5.63;;;;;;;-2.29;100.00;91551.13;2114656;27;20039;-89
2021/11/29 04:05:05;;;;;;;7.80;5.93;;;;;;;-2.38;100.00;91556.00;2103212;28;20028;-89
2021/11/29 04:06:26;;;;;;;7.38;5.55;;;;;;;-2.26;100.00;91555.63;2099281;28;20031;-90
2021/11/29 04:07:42;;;;;;;6.57;5.93;;;;;;;-2.12;100.00;91558.25;2116390;27;20144;-88
2021/11/29 04:08:49;;;;;;;6.38;5.75;;;;;;;-2.06;100.00;91550.78;2101544;28;20043;-89
2021/11/29 04:09:50;;;;;;;7.68;5.95;;;;;;;-2.11;100.00;91557.16;2097728;28;20028;-90
2021/11/29 04:10:58;;;;;;;7.88;5.70;;;;;;;-2.10;100.00;91555.28;2106982;28;20032;-89
2021/11/29 04:12:07;;;;;;;6.68;6.07;;;;;;;-2.01;100.00;91560.13;2096218;28;20036;-90
2021/11/29 04:13:09;;;;;;;7.63;5.93;;;;;;;-2.08;100.00;91561.63;2088023;28;20707;-87
2021/11/29 04:14:11;;;;;;;6.82;5.38;;;;;;;-2.29;100.00;91559.75;2086560;28;20033;-91
2021/11/29 04:15:12;;;;;;;7.68;5.50;;;;;;;-2.18;100.00;91562.38;2088854;28;20063;-89
2021/11/29 04:16:15;;;;;;;6.82;6.10;;;;;;;-2.35;100.00;91558.63;2096214;28;20024;-89
2021/11/29 04:17:16;;;;;;;7.28;6.00;;;;;;;-2.35;100.00;91561.25;2106799;28;20042;-90
2021/11/29 04:18:17;;;;;;;6.80;5.47;;;;;;;-2.09;100.00;91565.38;2102225;28;20446;-92
2021/11/29 04:19:19;;;;;;;8.18;5.93;;;;;;;-2.11;100.00;91567.63;2096205;28;20029;-87
2021/11/29 04:20:21;;;;;;;6.15;5.55;;;;;;;-2.10;100.00;91568.38;2085398;28;20090;-91
2021/11/29 04:21:22;;;;;;;6.57;5.80;;;;;;;-2.31;100.00;91563.88;2095707;28;20401;-90
2021/11/29 04:22:27;;;;;;;7.22;5.65;;;;;;;-2.31;100.00;91575.06;2093936;28;20032;-89
2021/11/29 04:23:29;;;;;;;6.10;5.50;;;;;;;-2.24;100.00;91576.94;2096614;28;20028;-89
2021/11/29 04:24:31;;;;;;;8.30;6.40;;;;;;;-2.23;100.00;91578.44;2104995;28;20032;-86
2021/11/29 04:25:45;;;;;;;7.40;6.72;;;;;;;-2.33;100.00;91584.41;2098563;28;20136;-88
2021/11/29 04:26:51;;;;;;;10.77;7.05;;;;;;;-2.21;100.00;91581.44;2099352;28;20028;-90
2021/11/29 04:27:55;;;;;;;8.35;6.88;;;;;;;-2.26;100.00;91588.91;2103821;28;20039;-91
2021/11/29 04:28:57;;;;;;;10.25;6.75;;;;;;;-2.24;100.00;91581.41;2104280;28;20040;-89
2021/11/29 04:30:05;;;;;;;9.02;6.55;;;;;;;-2.25;100.00;91583.28;2112510;28;20032;-91
2021/11/29 04:31:06;;;;;;;9.95;7.82;;;;;;;-2.17;100.00;91587.41;2102780;28;20024;-91
2021/11/29 04:32:08;;;;;;;10.45;7.20;;;;;;;-2.19;100.00;91581.81;2082550;28;20414;-89
2021/11/29 04:33:09;;;;;;;9.70;7.45;;;;;;;-2.08;100.00;91587.78;2094478;28;20043;-91
2021/11/29 04:34:11;;;;;;;10.70;7.90;;;;;;;-2.30;100.00;91587.03;2104176;28;20028;-88
2021/11/29 04:35:13;;;;;;;9.32;7.65;;;;;;;-2.38;100.00;91582.91;2103461;28;20473;-89
2021/11/29 04:36:14;;;;;;;8.90;7.03;;;;;;;-2.37;100.00;91589.66;2104004;28;20031;-91
2021/11/29 04:37:15;;;;;;;9.65;6.47;;;;;;;-2.20;100.00;91587.41;2104569;28;20028;-90
2021/11/29 04:38:16;;;;;;;9.30;6.32;;;;;;;-2.37;100.00;91599.34;2097651;28;20115;-90
2021/11/29 04:39:17;;;;;;;8.68;6.30;;;;;;;-2.32;100.00;91589.28;2090030;28;20017;-89
2021/11/29 04:40:18;;;;;;;8.80;6.97;;;;;;;-2.37;100.00;91594.13;2098732;28;20040;-90
2021/11/29 04:41:19;;;;;;;8.63;6.75;;;;;;;-2.41;100.00;91596.00;2096256;28;20032;-90
2021/11/29 04:42:20;;;;;;;7.32;6.53;;;;;;;-2.25;100.00;91593.75;2094209;28;20055;-89
2021/11/29 04:43:21;;;;;;;8.40;6.80;;;;;;;-2.36;100.00;91595.63;2093349;28;20045;-88
2021/11/29 04:44:30;;;;;;;8.18;6.93;;;;;;;-2.41;100.00;91599.38;2094290;28;20033;-89
2021/11/29 04:45:33;;;;;;;11.18;7.43;;;;;;;-2.52;100.00;91601.19;2114513;27;20047;-88
2021/11/29 04:46:34;;;;;;;8.38;6.45;;;;;;;-2.37;100.00;91600.13;2111317;28;20045;-91
2021/11/29 04:47:35;;;;;;;8.40;6.43;;;;;;;-2.34;100.00;91607.22;2096864;28;20028;-90
2021/11/29 04:48:36;;;;;;;8.00;6.07;;;;;;;-2.44;100.00;91604.59;2086998;28;20044;-90
2021/11/29 04:49:37;;;;;;;7.78;6.50;;;;;;;-2.39;100.00;91602.34;2097765;28;20039;-89
2021/11/29 04:50:38;;;;;;;8.38;6.72;;;;;;;-2.30;100.00;91607.97;2088244;28;20124;-89
2021/11/29 04:51:39;;;;;;;8.75;5.90;;;;;;;-2.12;100.00;91604.63;2087789;28;20116;-88
2021/11/29 04:52:41;;;;;;;7.90;6.50;;;;;;;-2.22;100.00;91608.72;2087397;28;20044;-88
2021/11/29 04:53:42;;;;;;;7.55;6.57;;;;;;;-2.15;100.00;91613.19;2089755;28;20043;-91
2021/11/29 04:54:43;;;;;;;7.18;6.18;;;;;;;-2.07;100.00;91610.22;2097756;28;20093;-88
2021/11/29 04:55:44;;;;;;;8.80;6.38;;;;;;;-2.05;100.00;91607.25;2097408;28;20025;-89
2021/11/29 04:56:46;;;;;;;6.95;5.90;;;;;;;-2.06;100.00;91614.34;2093339;28;20029;-86
2021/11/29 04:57:47;;;;;;;8.88;6.45;;;;;;;-2.19;100.00;91613.22;2086356;28;20782;-88
2021/11/29 04:58:48;;;;;;;8.48;6.43;;;;;;;-2.21;100.00;91620.69;2087603;28;20162;-88
2021/11/29 04:59:49;;;;;;;8.30;6.60;;;;;;;-2.23;100.00;91624.81;2094538;28;20646;-88
2021/11/29 05:00:51;;;;;;;9.35;6.63;;;;;;;-2.00;100.00;91621.84;2113388;27;20036;-90